createdAt,value
2023-02-18T00:01:30.468Z,33.37
2023-02-18T00:04:01.471Z,32.93
2023-02-18T00:06:36.351Z,32.20
2023-02-18T00:09:07.044Z,32.73
2023-02-18T00:11:37.969Z,30.97
2023-02-18T00:14:15.616Z,32.80
2023-02-18T00:16:46.100Z,31.10
2023-02-18T00:19:20.634Z,32.00
2023-02-18T00:21:49.081Z,29.97
2023-02-18T00:24:18.024Z,30.20
2023-02-18T00:26:46.610Z,30.93
2023-02-18T00:29:14.717Z,30.43
2023-02-18T00:31:43.687Z,29.60
2023-02-18T00:34:14.376Z,28.17
2023-02-18T00:36:43.340Z,31.07
2023-02-18T00:39:13.176Z,28.83
2023-02-18T00:41:43.243Z,28.90
2023-02-18T00:44:13.049Z,28.43
2023-02-18T00:46:42.523Z,29.70
2023-02-18T00:49:10.737Z,28.40
2023-02-18T00:51:38.478Z,31.13
2023-02-18T00:54:06.452Z,32.80
2023-02-18T00:56:34.711Z,34.50
2023-02-18T00:59:03.680Z,34.93
2023-02-18T01:01:31.760Z,37.67
2023-02-18T01:03:59.541Z,38.77
2023-02-18T01:06:29.626Z,41.07
2023-02-18T01:09:00.194Z,41.00
2023-02-18T01:11:30.840Z,41.60
2023-02-18T01:13:58.806Z,43.27
2023-02-18T01:16:27.197Z,42.07
2023-02-18T01:18:55.175Z,39.00
2023-02-18T01:21:23.012Z,41.50
2023-02-18T01:23:51.033Z,42.33
2023-02-18T01:26:18.764Z,41.60
2023-02-18T01:28:46.604Z,40.30
2023-02-18T01:31:16.591Z,39.60
2023-02-18T01:33:45.103Z,34.47
2023-02-18T01:36:13.651Z,41.70
2023-02-18T01:38:42.386Z,39.93
2023-02-18T01:41:11.688Z,38.53
2023-02-18T01:43:40.272Z,36.63
2023-02-18T01:46:22.207Z,38.27
2023-02-18T01:49:01.621Z,38.87
2023-02-18T01:51:50.487Z,36.20
2023-02-18T01:54:40.080Z,30.37
2023-02-18T01:57:22.024Z,29.10
2023-02-18T02:00:08.530Z,29.90
2023-02-18T02:02:49.486Z,29.53
2023-02-18T02:05:18.746Z,32.30
2023-02-18T02:07:52.222Z,33.13
2023-02-18T02:10:21.269Z,32.07
2023-02-18T02:13:13.919Z,31.23
2023-02-18T02:16:37.197Z,30.33
2023-02-18T02:20:08.628Z,31.53
2023-02-18T02:23:40.978Z,30.27
2023-02-18T02:27:07.046Z,30.67
2023-02-18T02:30:27.118Z,29.83
2023-02-18T02:33:37.475Z,29.27
2023-02-18T02:36:50.075Z,29.87
2023-02-18T02:40:27.500Z,27.57
2023-02-18T02:43:52.295Z,27.13
2023-02-18T02:46:38.900Z,26.83
2023-02-18T02:50:00.924Z,27.20
2023-02-18T02:52:55.861Z,22.07
2023-02-18T02:55:24.137Z,22.10
2023-02-18T02:57:57.325Z,20.97
2023-02-18T03:01:15.142Z,20.00
2023-02-18T03:04:32.178Z,20.30
2023-02-18T03:07:35.056Z,19.40
2023-02-18T03:11:14.723Z,20.30
2023-02-18T03:14:28.166Z,17.20
2023-02-18T03:17:37.593Z,18.97
2023-02-18T03:21:00.611Z,15.97
2023-02-18T03:23:45.390Z,14.43
2023-02-18T03:26:18.821Z,13.97
2023-02-18T03:28:53.438Z,15.20
2023-02-18T03:31:29.841Z,18.20
2023-02-18T03:34:16.699Z,17.67
2023-02-18T03:36:46.273Z,18.43
2023-02-18T03:39:24.029Z,20.57
2023-02-18T03:41:52.058Z,19.20
2023-02-18T03:44:19.963Z,19.93
2023-02-18T03:46:47.772Z,19.93
2023-02-18T03:49:16.783Z,22.00
2023-02-18T03:51:45.160Z,20.40
2023-02-18T03:54:14.750Z,20.27
2023-02-18T03:56:44.625Z,19.63
2023-02-18T03:59:14.199Z,20.90
2023-02-18T04:01:42.168Z,21.67
2023-02-18T04:04:10.155Z,17.77
2023-02-18T04:06:38.105Z,19.97
2023-02-18T04:09:09.134Z,21.27
2023-02-18T04:11:40.841Z,19.90
2023-02-18T04:14:10.303Z,17.40
2023-02-18T04:16:38.244Z,15.77
2023-02-18T04:19:06.169Z,17.13
2023-02-18T04:21:35.170Z,17.77
2023-02-18T04:24:03.445Z,16.77
2023-02-18T04:26:31.449Z,16.40
2023-02-18T04:28:59.300Z,17.80
2023-02-18T04:31:27.918Z,17.10
2023-02-18T04:33:55.984Z,16.13
2023-02-18T04:36:23.830Z,15.53
2023-02-18T04:38:51.798Z,15.57
2023-02-18T04:41:19.816Z,13.60
2023-02-18T04:43:48.296Z,12.40
2023-02-18T04:46:16.091Z,11.80
2023-02-18T04:48:44.080Z,9.70
2023-02-18T04:51:12.170Z,8.87
2023-02-18T04:53:39.998Z,9.03
2023-02-18T04:56:08.102Z,9.00
2023-02-18T04:58:36.343Z,8.87
2023-02-18T05:01:06.231Z,9.33
2023-02-18T05:03:34.434Z,7.37
2023-02-18T05:06:02.274Z,6.30
2023-02-18T05:08:30.346Z,7.07
2023-02-18T05:10:58.241Z,7.23
2023-02-18T05:13:26.361Z,6.43
2023-02-18T05:15:54.177Z,6.37
2023-02-18T05:18:22.073Z,5.30
2023-02-18T05:20:50.020Z,5.43
2023-02-18T05:23:20.319Z,5.40
2023-02-18T05:25:48.906Z,6.17
2023-02-18T05:28:16.886Z,4.63
2023-02-18T05:30:44.812Z,5.50
2023-02-18T05:33:12.878Z,5.63
2023-02-18T05:35:40.785Z,5.10
2023-02-18T05:38:08.747Z,5.67
2023-02-18T05:40:36.805Z,7.10
2023-02-18T05:43:04.828Z,6.20
2023-02-18T05:45:32.900Z,5.87
2023-02-18T05:48:00.704Z,5.47
2023-02-18T05:50:28.812Z,7.13
2023-02-18T05:52:56.899Z,6.50
2023-02-18T05:55:24.695Z,6.90
2023-02-18T05:57:53.147Z,7.27
2023-02-18T06:00:21.488Z,6.83
2023-02-18T06:02:49.484Z,7.40
2023-02-18T06:05:17.618Z,7.17
2023-02-18T06:07:45.442Z,6.33
2023-02-18T06:10:13.615Z,6.43
2023-02-18T06:12:41.531Z,6.13
2023-02-18T06:15:09.883Z,5.70
2023-02-18T06:17:37.764Z,5.67
2023-02-18T06:20:06.847Z,5.13
2023-02-18T06:22:34.627Z,6.50
2023-02-18T06:25:02.370Z,5.40
2023-02-18T06:27:30.294Z,6.10
2023-02-18T06:29:58.247Z,5.30
2023-02-18T06:32:26.081Z,5.60
2023-02-18T06:34:54.094Z,5.53
2023-02-18T06:37:22.064Z,4.53
2023-02-18T06:39:49.969Z,4.67
2023-02-18T06:42:17.958Z,4.40
2023-02-18T06:44:45.643Z,4.97
2023-02-18T06:47:13.569Z,4.83
2023-02-18T06:49:41.458Z,4.70
2023-02-18T06:52:09.276Z,4.90
2023-02-18T06:54:37.120Z,5.20
2023-02-18T06:57:05.017Z,6.63
2023-02-18T06:59:32.898Z,6.50
2023-02-18T07:02:00.784Z,5.90
2023-02-18T07:04:28.627Z,6.13
2023-02-18T07:06:56.569Z,6.30
2023-02-18T07:09:24.704Z,5.40
2023-02-18T07:11:52.875Z,5.57
2023-02-18T07:14:20.795Z,4.73
2023-02-18T07:16:48.524Z,4.53
2023-02-18T07:19:17.188Z,4.30
2023-02-18T07:21:44.932Z,4.50
2023-02-18T07:24:13.039Z,4.87
2023-02-18T07:26:41.271Z,4.63
2023-02-18T07:29:09.258Z,7.00
2023-02-18T07:31:38.826Z,8.20
2023-02-18T07:34:06.897Z,6.00
2023-02-18T07:36:34.762Z,7.33
2023-02-18T07:39:02.802Z,10.03
2023-02-18T07:41:30.666Z,11.20
2023-02-18T07:43:58.554Z,12.00
2023-02-18T07:46:27.615Z,10.13
2023-02-18T07:48:57.356Z,12.30
2023-02-18T07:51:25.174Z,14.33
2023-02-18T07:53:52.928Z,15.30
2023-02-18T07:56:20.768Z,19.33
2023-02-18T07:58:48.452Z,18.40
2023-02-18T08:01:17.237Z,16.50
2023-02-18T08:03:45.292Z,13.37
2023-02-18T08:06:41.169Z,11.37
2023-02-18T08:09:09.929Z,10.07
2023-02-18T08:11:38.313Z,8.60
2023-02-18T08:14:07.382Z,6.60
2023-02-18T08:16:38.901Z,6.90
2023-02-18T08:19:11.129Z,5.90
2023-02-18T08:21:43.431Z,5.37
2023-02-18T08:24:12.091Z,4.07
2023-02-18T08:26:58.242Z,4.67
2023-02-18T08:29:30.279Z,3.83
2023-02-18T08:31:59.650Z,6.20
2023-02-18T08:34:31.232Z,6.93
2023-02-18T08:37:02.581Z,7.73
2023-02-18T08:39:38.529Z,6.73
2023-02-18T08:42:07.712Z,7.50
2023-02-18T08:44:35.591Z,8.53
2023-02-18T08:47:03.851Z,8.80
2023-02-18T08:49:54.431Z,8.70
2023-02-18T08:52:23.382Z,6.40
2023-02-18T08:54:51.884Z,5.93
2023-02-18T08:57:19.734Z,5.43
2023-02-18T08:59:47.690Z,5.70
2023-02-18T09:02:16.492Z,5.93
2023-02-18T09:04:45.000Z,6.60
2023-02-18T09:07:12.869Z,6.20
2023-02-18T09:09:42.093Z,10.90
2023-02-18T09:12:10.085Z,10.20
2023-02-18T09:14:37.968Z,9.37
2023-02-18T09:17:05.823Z,9.90
2023-02-18T09:19:33.625Z,7.63
2023-02-18T09:22:03.104Z,7.00
2023-02-18T09:24:31.188Z,6.73
2023-02-18T09:27:00.431Z,7.20
2023-02-18T09:29:28.556Z,6.93
2023-02-18T09:31:56.341Z,7.03
2023-02-18T09:34:24.062Z,6.50
2023-02-18T09:36:51.927Z,7.30
2023-02-18T09:39:21.325Z,8.87
2023-02-18T09:42:00.236Z,9.23
2023-02-18T09:44:53.411Z,9.90
2023-02-18T09:47:45.062Z,9.00
2023-02-18T09:50:33.845Z,8.80
2023-02-18T09:53:05.185Z,8.30
2023-02-18T09:55:41.381Z,11.50
2023-02-18T09:58:29.823Z,11.43
2023-02-18T10:01:30.322Z,10.40
2023-02-18T10:04:13.216Z,10.47
2023-02-18T10:06:41.233Z,9.00
2023-02-18T10:09:28.729Z,7.67
2023-02-18T10:12:19.217Z,7.70
2023-02-18T10:15:01.504Z,7.53
2023-02-18T10:17:34.580Z,7.37
2023-02-18T10:20:08.089Z,7.70
2023-02-18T10:22:39.622Z,8.57
2023-02-18T10:25:09.562Z,7.33
2023-02-18T10:27:41.399Z,7.60
2023-02-18T10:30:38.106Z,8.60
2023-02-18T10:33:55.069Z,8.20
2023-02-18T10:36:39.715Z,9.03
2023-02-18T10:39:42.801Z,8.53
2023-02-18T10:42:40.634Z,7.50
2023-02-18T10:46:11.610Z,8.20
2023-02-18T10:49:57.275Z,8.90
2023-02-18T10:52:36.505Z,10.20
2023-02-18T10:55:18.618Z,11.07
2023-02-18T10:57:55.502Z,10.97
2023-02-18T11:00:33.432Z,11.87
2023-02-18T11:03:40.946Z,11.90
2023-02-18T11:06:42.890Z,13.60
2023-02-18T11:09:47.964Z,15.43
2023-02-18T11:12:25.629Z,16.33
2023-02-18T11:15:28.089Z,18.10
2023-02-18T11:18:26.398Z,18.73
2023-02-18T11:21:06.204Z,17.80
2023-02-18T11:23:52.547Z,19.13
2023-02-18T11:26:36.493Z,20.40
2023-02-18T11:29:24.626Z,19.07
2023-02-18T11:31:57.554Z,23.50
2023-02-18T11:34:33.732Z,22.30
2023-02-18T11:37:21.992Z,19.80
2023-02-18T11:39:56.695Z,21.27
2023-02-18T11:42:28.036Z,20.87
2023-02-18T11:45:03.306Z,22.07
2023-02-18T11:47:38.178Z,22.53
2023-02-18T11:50:22.342Z,25.23
2023-02-18T11:52:52.479Z,24.03
2023-02-18T11:55:32.244Z,28.87
2023-02-18T11:58:07.274Z,28.23
2023-02-18T12:00:48.188Z,26.57
2023-02-18T12:03:54.092Z,25.70
2023-02-18T12:06:39.630Z,25.40
2023-02-18T12:09:37.770Z,25.67
2023-02-18T12:12:47.710Z,25.17
2023-02-18T12:15:34.624Z,23.67
2023-02-18T12:18:38.672Z,23.50
2023-02-18T12:21:48.107Z,24.57
2023-02-18T12:25:06.637Z,21.00
2023-02-18T12:28:29.755Z,21.70
2023-02-18T12:31:26.611Z,18.37
2023-02-18T12:35:00.820Z,21.60
2023-02-18T12:38:44.630Z,21.37
2023-02-18T12:42:05.547Z,19.10
2023-02-18T12:44:52.613Z,20.10
2023-02-18T12:48:16.761Z,20.40
2023-02-18T12:51:30.587Z,20.90
2023-02-18T12:54:29.449Z,22.07
2023-02-18T12:57:20.296Z,24.37
2023-02-18T13:00:47.514Z,24.47
2023-02-18T13:04:29.334Z,24.20
2023-02-18T13:07:55.083Z,27.47
2023-02-18T13:11:09.580Z,27.17
2023-02-18T13:14:25.994Z,30.60
2023-02-18T13:17:01.693Z,30.10
2023-02-18T13:20:01.739Z,29.97
2023-02-18T13:22:33.361Z,33.80
2023-02-18T13:25:01.735Z,31.70
2023-02-18T13:28:32.885Z,33.10
2023-02-18T13:31:46.873Z,32.90
2023-02-18T13:35:02.970Z,33.50
2023-02-18T13:38:20.087Z,32.00
2023-02-18T13:40:49.676Z,31.80
2023-02-18T13:43:36.343Z,30.77
2023-02-18T13:46:25.275Z,29.00
2023-02-18T13:49:13.670Z,31.77
2023-02-18T13:51:54.694Z,28.77
2023-02-18T13:54:50.549Z,28.23
2023-02-18T13:57:28.975Z,28.97
2023-02-18T14:00:22.277Z,29.07
2023-02-18T14:03:33.698Z,27.63
2023-02-18T14:06:02.346Z,28.00
2023-02-18T14:08:40.503Z,28.37
2023-02-18T14:11:16.964Z,29.73
2023-02-18T14:14:31.854Z,28.80
2023-02-18T14:17:20.662Z,29.10
2023-02-18T14:20:20.529Z,28.10
2023-02-18T14:22:53.542Z,28.33
2023-02-18T14:25:21.465Z,31.30
2023-02-18T14:27:55.191Z,29.77
2023-02-18T14:30:22.997Z,27.20
2023-02-18T14:32:59.096Z,32.00
2023-02-18T14:35:56.540Z,27.53
2023-02-18T14:38:43.922Z,28.73
2023-02-18T14:42:08.120Z,26.87
2023-02-18T14:45:47.459Z,26.20
2023-02-18T14:49:17.058Z,27.80
2023-02-18T14:51:49.716Z,26.57
2023-02-18T14:54:25.568Z,25.13
2023-02-18T14:57:05.565Z,25.20
2023-02-18T14:59:42.055Z,23.97
2023-02-18T15:02:31.017Z,22.77
2023-02-18T15:05:30.972Z,23.33
2023-02-18T15:08:14.735Z,23.00
2023-02-18T15:11:07.800Z,20.10
2023-02-18T15:13:44.452Z,20.70
2023-02-18T15:16:34.430Z,25.07
2023-02-18T15:19:15.407Z,21.13
2023-02-18T15:21:51.992Z,23.30
2023-02-18T15:24:38.953Z,23.17
2023-02-18T15:27:40.253Z,21.97
2023-02-18T15:30:33.779Z,22.77
2023-02-18T15:33:02.596Z,19.47
2023-02-18T15:35:34.018Z,20.97
2023-02-18T15:38:04.653Z,19.80
2023-02-18T15:40:40.604Z,20.67
2023-02-18T15:43:09.459Z,19.40
2023-02-18T15:45:47.548Z,21.47
2023-02-18T15:48:45.554Z,21.93
2023-02-18T15:51:22.782Z,24.50
2023-02-18T15:54:02.343Z,22.07
2023-02-18T15:56:41.702Z,21.97
2023-02-18T15:59:32.696Z,22.07
2023-02-18T16:02:28.059Z,20.00
2023-02-18T16:05:05.126Z,17.67
2023-02-18T16:08:00.323Z,26.97
2023-02-18T16:10:36.873Z,19.43
2023-02-18T16:13:06.217Z,18.83
2023-02-18T16:15:42.961Z,19.80
2023-02-18T16:18:31.288Z,19.10
2023-02-18T16:21:48.428Z,18.33
2023-02-18T16:24:33.530Z,17.83
2023-02-18T16:27:03.521Z,19.67
2023-02-18T16:29:42.739Z,19.10
2023-02-18T16:32:11.099Z,17.77
2023-02-18T16:34:38.881Z,19.30
2023-02-18T16:37:24.992Z,19.60
2023-02-18T16:39:55.396Z,22.57
2023-02-18T16:42:23.361Z,18.00
2023-02-18T16:44:52.188Z,18.90
2023-02-18T16:47:21.423Z,20.10
2023-02-18T16:49:51.736Z,19.60
2023-02-18T16:52:21.703Z,17.80
2023-02-18T16:54:50.557Z,18.67
2023-02-18T16:57:18.579Z,21.47
2023-02-18T16:59:46.849Z,17.80
2023-02-18T17:02:22.977Z,18.03
2023-02-18T17:04:54.642Z,18.90
2023-02-18T17:07:23.782Z,20.90
2023-02-18T17:09:51.500Z,18.83
2023-02-18T17:12:19.389Z,17.60
2023-02-18T17:14:47.330Z,19.20
2023-02-18T17:17:15.066Z,19.13
2023-02-18T17:19:42.744Z,16.70
2023-02-18T17:22:15.546Z,18.27
2023-02-18T17:24:43.499Z,17.53
2023-02-18T17:27:11.791Z,23.37
2023-02-18T17:29:39.533Z,16.30
2023-02-18T17:32:09.417Z,17.43
2023-02-18T17:34:41.094Z,16.07
2023-02-18T17:37:14.236Z,18.10
2023-02-18T17:39:42.114Z,16.80
2023-02-18T17:42:12.842Z,18.17
2023-02-18T17:44:41.641Z,17.70
2023-02-18T17:47:09.458Z,18.77
2023-02-18T17:49:37.406Z,17.43
2023-02-18T17:52:06.040Z,17.33
2023-02-18T17:54:33.740Z,19.80
2023-02-18T17:57:01.516Z,18.00
2023-02-18T17:59:30.718Z,18.00
2023-02-18T18:01:58.810Z,18.93
2023-02-18T18:04:27.077Z,19.20
2023-02-18T18:06:55.584Z,19.13
2023-02-18T18:09:23.394Z,19.80
2023-02-18T18:11:51.604Z,22.27
2023-02-18T18:14:19.367Z,20.23
2023-02-18T18:16:47.167Z,21.63
2023-02-18T18:19:15.300Z,22.50
2023-02-18T18:21:43.187Z,22.97
2023-02-18T18:24:13.302Z,24.60
2023-02-18T18:26:41.380Z,24.23
2023-02-18T18:29:10.416Z,24.57
2023-02-18T18:31:39.016Z,24.30
2023-02-18T18:34:07.328Z,25.43
2023-02-18T18:36:35.300Z,25.40
2023-02-18T18:39:04.047Z,23.70
2023-02-18T18:41:32.147Z,21.20
2023-02-18T18:44:00.101Z,21.30
2023-02-18T18:46:28.163Z,21.47
2023-02-18T18:49:00.258Z,22.27
2023-02-18T18:51:33.711Z,23.80
2023-02-18T18:54:01.506Z,25.50
2023-02-18T18:56:29.401Z,26.90
2023-02-18T18:58:57.501Z,30.63
2023-02-18T19:01:27.666Z,33.67
2023-02-18T19:03:56.102Z,32.43
2023-02-18T19:06:23.980Z,34.47
2023-02-18T19:08:51.823Z,31.80
2023-02-18T19:11:19.575Z,31.50
2023-02-18T19:13:47.694Z,32.43
2023-02-18T19:16:34.871Z,32.87
2023-02-18T19:19:02.942Z,31.33
2023-02-18T19:21:31.850Z,36.30
2023-02-18T19:24:00.079Z,31.47
2023-02-18T19:26:28.287Z,34.33
2023-02-18T19:28:56.088Z,32.40
2023-02-18T19:31:24.627Z,28.97
2023-02-18T19:33:53.544Z,26.60
2023-02-18T19:36:21.608Z,30.73
2023-02-18T19:38:51.523Z,30.83
2023-02-18T19:41:19.571Z,32.97
2023-02-18T19:43:47.532Z,34.77
2023-02-18T19:46:19.146Z,32.20
2023-02-18T19:48:52.811Z,32.20
2023-02-18T19:51:21.900Z,32.17
2023-02-18T19:53:49.963Z,33.63
2023-02-18T19:56:17.709Z,30.10
2023-02-18T19:58:45.528Z,34.90
2023-02-18T20:01:18.570Z,30.40
2023-02-18T20:03:47.464Z,29.77
2023-02-18T20:06:22.339Z,28.00
2023-02-18T20:08:50.255Z,30.17
2023-02-18T20:11:18.217Z,29.57
2023-02-18T20:13:48.378Z,31.10
2023-02-18T20:16:16.274Z,29.20
2023-02-18T20:18:44.150Z,28.63
2023-02-18T20:21:13.107Z,27.10
2023-02-18T20:23:42.102Z,27.30
2023-02-18T20:26:15.157Z,24.43
2023-02-18T20:28:46.307Z,24.83
2023-02-18T20:31:16.488Z,25.40
2023-02-18T20:33:45.204Z,23.80
2023-02-18T20:36:15.069Z,25.27
2023-02-18T20:38:43.034Z,24.73
2023-02-18T20:41:15.586Z,25.00
2023-02-18T20:43:44.152Z,23.20
2023-02-18T20:46:22.417Z,21.87
2023-02-18T20:48:50.658Z,20.10
2023-02-18T20:51:23.360Z,21.90
2023-02-18T20:53:52.409Z,21.83
2023-02-18T20:56:22.496Z,23.57
2023-02-18T20:58:51.404Z,26.50
2023-02-18T21:01:20.625Z,26.20
2023-02-18T21:03:50.749Z,26.30
2023-02-18T21:06:24.792Z,24.97
2023-02-18T21:08:55.001Z,23.30
2023-02-18T21:11:28.162Z,22.80
2023-02-18T21:13:58.539Z,23.17
2023-02-18T21:16:29.081Z,20.70
2023-02-18T21:18:57.232Z,23.17
2023-02-18T21:21:25.834Z,25.10
2023-02-18T21:23:55.736Z,24.30
2023-02-18T21:26:28.081Z,24.60
2023-02-18T21:29:05.321Z,24.37
2023-02-18T21:31:42.599Z,23.50
2023-02-18T21:34:16.120Z,21.90
2023-02-18T21:36:44.426Z,21.53
2023-02-18T21:39:13.315Z,21.83
2023-02-18T21:41:42.134Z,21.40
2023-02-18T21:44:10.938Z,19.70
2023-02-18T21:46:40.255Z,19.00
2023-02-18T21:49:12.627Z,21.80
2023-02-18T21:52:05.237Z,20.13
2023-02-18T21:54:47.246Z,21.33
2023-02-18T21:57:22.113Z,23.43
2023-02-18T21:59:50.598Z,22.63
2023-02-18T22:02:28.849Z,24.60
2023-02-18T22:04:58.678Z,23.37
2023-02-18T22:07:31.215Z,24.13
2023-02-18T22:09:59.281Z,26.13
2023-02-18T22:12:27.586Z,22.90
2023-02-18T22:14:55.468Z,23.20
2023-02-18T22:17:23.411Z,22.37
2023-02-18T22:19:51.401Z,21.43
2023-02-18T22:22:19.149Z,21.60
2023-02-18T22:24:47.203Z,24.43
2023-02-18T22:27:15.162Z,22.73
2023-02-18T22:29:43.378Z,22.60
2023-02-18T22:32:11.560Z,24.00
2023-02-18T22:34:39.912Z,23.90
2023-02-18T22:37:08.351Z,23.13
2023-02-18T22:39:36.458Z,24.13
2023-02-18T22:42:05.400Z,23.57
2023-02-18T22:44:33.463Z,25.50
2023-02-18T22:47:01.317Z,26.50
2023-02-18T22:49:29.931Z,22.77
2023-02-18T22:51:57.836Z,23.67
2023-02-18T22:54:25.532Z,23.90
2023-02-18T22:56:54.910Z,22.27
2023-02-18T22:59:22.832Z,24.50
2023-02-18T23:01:53.248Z,23.20
2023-02-18T23:04:22.815Z,22.83
2023-02-18T23:06:51.465Z,23.40
2023-02-18T23:09:26.001Z,20.60
2023-02-18T23:11:58.974Z,22.27
2023-02-18T23:14:29.902Z,22.87
2023-02-18T23:17:13.069Z,22.17
2023-02-18T23:19:54.160Z,24.70
2023-02-18T23:22:37.940Z,22.10
2023-02-18T23:25:08.260Z,24.93
2023-02-18T23:27:36.256Z,25.43
2023-02-18T23:30:04.576Z,28.80
2023-02-18T23:32:32.320Z,31.40
2023-02-18T23:35:00.404Z,29.93
2023-02-18T23:37:46.592Z,29.83
2023-02-18T23:40:14.972Z,30.27
2023-02-18T23:42:42.721Z,33.57
2023-02-18T23:45:10.771Z,33.30
2023-02-18T23:47:38.608Z,34.73
2023-02-18T23:50:07.371Z,30.40
2023-02-18T23:52:35.110Z,30.17
2023-02-18T23:55:03.410Z,28.97
2023-02-18T23:57:33.036Z,25.80
